EZY45 EGKK-EGAA
Flight info
| Callsign | EZY45 |
|---|---|
| Flight time | 1h 1m |
| Altitude | 36000 |
| Route | LAM L10 BPK UN601 LESTA UP6 RODOL UM65 TENSO L603 BELOX DCT REMSI DCT UVPOK M147 ROBOP M146 IPSET P6 BELZU |
| Aircraft | A320/M-SDE3FGHIRWY/LB1 |
Departure
| Time | 2026-04-18 10:37 |
|---|---|
| Airport | London Gatwick Airport (EGKK) |
Arrival
| Time | 2026-04-18 11:39 |
|---|---|
| Airport | Belfast International Airport (EGAA) |
| Time | Latitude | Longitude | Altitude | Speed | Heading |
|---|---|---|---|---|---|
| 2026-04-18 10:21 | 51.15501 | -0.16845 | 205 ft | 0 kts | 347° |
| 2026-04-18 10:28 | 51.15479 | -0.16839 | 209 ft | 4 kts | 0° |
| 2026-04-18 10:29 | 51.15455 | -0.16846 | 210 ft | 4 kts | 38° |
| 2026-04-18 10:29 | 51.15445 | -0.16866 | 213 ft | 0 kts | 77° |
| 2026-04-18 10:33 | 51.15451 | -0.16765 | 212 ft | 10 kts | 109° |
| 2026-04-18 10:33 | 51.15408 | -0.16716 | 212 ft | 7 kts | 163° |
| 2026-04-18 10:33 | 51.15364 | -0.16701 | 205 ft | 6 kts | 167° |
| 2026-04-18 10:34 | 51.15329 | -0.16685 | 210 ft | 5 kts | 164° |
| 2026-04-18 10:34 | 51.15302 | -0.16673 | 207 ft | 3 kts | 164° |
| 2026-04-18 10:34 | 51.15283 | -0.16665 | 212 ft | 2 kts | 167° |
| 2026-04-18 10:34 | 51.15272 | -0.16662 | 205 ft | 1 kts | 170° |
| 2026-04-18 10:35 | 51.15268 | -0.16661 | 205 ft | 0 kts | 169° |
| 2026-04-18 10:35 | 51.15243 | -0.16653 | 207 ft | 0 kts | 169° |
| 2026-04-18 10:36 | 51.15185 | -0.16639 | 205 ft | 13 kts | 179° |
| 2026-04-18 10:36 | 51.15147 | -0.16676 | 213 ft | 0 kts | 259° |
| 2026-04-18 10:36 | 51.15147 | -0.16678 | 213 ft | 2 kts | 257° |
| 2026-04-18 10:37 | 51.15086 | -0.17073 | 216 ft | 81 kts | 258° |
| 2026-04-18 10:37 | 51.14911 | -0.18363 | 215 ft | 153 kts | 257° |
| 2026-04-18 10:37 | 51.14667 | -0.20196 | 740 ft | 174 kts | 259° |
| 2026-04-18 10:37 | 51.14406 | -0.22197 | 1526 ft | 195 kts | 257° |
| 2026-04-18 10:38 | 51.14108 | -0.24409 | 2101 ft | 210 kts | 257° |
| 2026-04-18 10:38 | 51.13804 | -0.26664 | 2937 ft | 213 kts | 258° |
| 2026-04-18 10:38 | 51.13841 | -0.28994 | 3769 ft | 219 kts | 285° |
| 2026-04-18 10:38 | 51.14664 | -0.31057 | 4608 ft | 228 kts | 315° |
| 2026-04-18 10:39 | 51.16114 | -0.32169 | 5374 ft | 240 kts | 349° |
| 2026-04-18 10:39 | 51.17780 | -0.31819 | 6199 ft | 250 kts | 24° |
| 2026-04-18 10:39 | 51.19049 | -0.30004 | 6938 ft | 258 kts | 61° |
| 2026-04-18 10:39 | 51.19584 | -0.27273 | 7659 ft | 261 kts | 80° |
| 2026-04-18 10:40 | 51.19929 | -0.24394 | 8394 ft | 266 kts | 81° |
| 2026-04-18 10:40 | 51.20259 | -0.21478 | 9147 ft | 270 kts | 81° |
| 2026-04-18 10:40 | 51.20600 | -0.18489 | 9648 ft | 288 kts | 80° |
| 2026-04-18 10:40 | 51.20996 | -0.15237 | 10066 ft | 306 kts | 79° |
| 2026-04-18 10:41 | 51.21429 | -0.11858 | 10214 ft | 313 kts | 79° |
| 2026-04-18 10:41 | 51.21878 | -0.08465 | 10247 ft | 313 kts | 79° |
| 2026-04-18 10:41 | 51.22332 | -0.05044 | 10363 ft | 317 kts | 79° |
| 2026-04-18 10:41 | 51.22801 | -0.01492 | 10675 ft | 339 kts | 79° |
| 2026-04-18 10:42 | 51.23572 | 0.02180 | 10898 ft | 361 kts | 60° |
| 2026-04-18 10:42 | 51.25180 | 0.05288 | 11434 ft | 368 kts | 37° |
| 2026-04-18 10:42 | 51.27403 | 0.07304 | 12074 ft | 369 kts | 15° |
| 2026-04-18 10:42 | 51.29924 | 0.07942 | 12737 ft | 366 kts | 355° |
| 2026-04-18 10:43 | 51.32439 | 0.07733 | 13419 ft | 369 kts | 351° |
| 2026-04-18 10:43 | 51.35026 | 0.07442 | 14077 ft | 374 kts | 351° |
| 2026-04-18 10:43 | 51.37640 | 0.07150 | 14673 ft | 378 kts | 351° |
| 2026-04-18 10:43 | 51.40277 | 0.06852 | 15293 ft | 382 kts | 351° |
| 2026-04-18 10:44 | 51.42946 | 0.06547 | 15906 ft | 385 kts | 351° |
| 2026-04-18 10:44 | 51.45642 | 0.06236 | 16513 ft | 389 kts | 351° |
| 2026-04-18 10:44 | 51.48320 | 0.05928 | 17103 ft | 393 kts | 351° |
| 2026-04-18 10:44 | 51.51068 | 0.05613 | 17701 ft | 396 kts | 351° |
| 2026-04-18 10:45 | 51.53832 | 0.05299 | 18296 ft | 400 kts | 351° |
| 2026-04-18 10:45 | 51.56629 | 0.04982 | 18838 ft | 404 kts | 351° |
| 2026-04-18 10:45 | 51.59449 | 0.04667 | 19364 ft | 407 kts | 351° |
| 2026-04-18 10:45 | 51.62290 | 0.04355 | 19880 ft | 411 kts | 351° |
| 2026-04-18 10:46 | 51.65158 | 0.04041 | 20400 ft | 414 kts | 351° |
| 2026-04-18 10:46 | 51.68048 | 0.03732 | 20931 ft | 417 kts | 351° |
| 2026-04-18 10:46 | 51.70953 | 0.03428 | 21396 ft | 421 kts | 351° |
| 2026-04-18 10:46 | 51.73894 | 0.03124 | 21910 ft | 424 kts | 351° |
| 2026-04-18 10:47 | 51.76819 | 0.02825 | 22449 ft | 428 kts | 351° |
| 2026-04-18 10:47 | 51.79816 | 0.02527 | 22925 ft | 431 kts | 351° |
| 2026-04-18 10:47 | 51.82830 | 0.02231 | 23395 ft | 435 kts | 351° |
| 2026-04-18 10:47 | 51.85864 | 0.01937 | 23842 ft | 438 kts | 351° |
| 2026-04-18 10:48 | 51.88925 | 0.01646 | 24232 ft | 441 kts | 351° |
| 2026-04-18 10:48 | 51.91961 | 0.01363 | 24618 ft | 443 kts | 351° |
| 2026-04-18 10:48 | 51.95048 | 0.01084 | 24995 ft | 445 kts | 351° |
| 2026-04-18 10:48 | 51.98150 | 0.00808 | 25362 ft | 447 kts | 351° |
| 2026-04-18 10:49 | 52.01266 | 0.00462 | 25716 ft | 446 kts | 345° |
| 2026-04-18 10:49 | 52.04213 | -0.00834 | 26066 ft | 435 kts | 330° |
| 2026-04-18 10:49 | 52.06791 | -0.03276 | 26406 ft | 423 kts | 314° |
| 2026-04-18 10:49 | 52.08966 | -0.06454 | 26753 ft | 420 kts | 310° |
| 2026-04-18 10:50 | 52.11087 | -0.09677 | 27091 ft | 422 kts | 310° |
| 2026-04-18 10:50 | 52.13237 | -0.12952 | 27454 ft | 424 kts | 310° |
| 2026-04-18 10:50 | 52.15390 | -0.16234 | 27791 ft | 425 kts | 310° |
| 2026-04-18 10:50 | 52.17569 | -0.19559 | 27964 ft | 431 kts | 310° |
| 2026-04-18 10:51 | 52.19022 | -0.21781 | 28053 ft | 435 kts | 310° |
| 2026-04-18 10:51 | 52.21242 | -0.25173 | 28300 ft | 437 kts | 310° |
| 2026-04-18 10:51 | 52.23461 | -0.28562 | 28613 ft | 438 kts | 310° |
| 2026-04-18 10:51 | 52.25695 | -0.31969 | 28895 ft | 440 kts | 310° |
| 2026-04-18 10:52 | 52.27938 | -0.35394 | 29168 ft | 441 kts | 310° |
| 2026-04-18 10:52 | 52.30170 | -0.38805 | 29433 ft | 442 kts | 310° |
| 2026-04-18 10:52 | 52.32440 | -0.42281 | 29691 ft | 443 kts | 309° |
| 2026-04-18 10:52 | 52.34686 | -0.45736 | 29900 ft | 445 kts | 309° |
| 2026-04-18 10:53 | 52.36919 | -0.49179 | 30108 ft | 446 kts | 309° |
| 2026-04-18 10:53 | 52.39186 | -0.52684 | 30293 ft | 447 kts | 309° |
| 2026-04-18 10:53 | 52.41461 | -0.56202 | 30449 ft | 448 kts | 309° |
| 2026-04-18 10:53 | 52.43715 | -0.59692 | 30581 ft | 449 kts | 309° |
| 2026-04-18 10:54 | 52.45987 | -0.63214 | 30718 ft | 450 kts | 309° |
| 2026-04-18 10:54 | 52.48269 | -0.66752 | 30841 ft | 451 kts | 309° |
| 2026-04-18 10:54 | 52.50547 | -0.70292 | 30968 ft | 451 kts | 309° |
| 2026-04-18 10:54 | 52.52832 | -0.73850 | 31087 ft | 452 kts | 309° |
| 2026-04-18 10:55 | 52.55085 | -0.77362 | 31214 ft | 452 kts | 309° |
| 2026-04-18 10:55 | 52.57367 | -0.80925 | 31343 ft | 452 kts | 309° |
| 2026-04-18 10:55 | 52.59651 | -0.84494 | 31469 ft | 452 kts | 309° |
| 2026-04-18 10:55 | 52.61941 | -0.88075 | 31590 ft | 452 kts | 309° |
| 2026-04-18 10:56 | 52.64225 | -0.91653 | 31722 ft | 452 kts | 308° |
| 2026-04-18 10:56 | 52.66501 | -0.95225 | 31879 ft | 452 kts | 308° |
| 2026-04-18 10:56 | 52.68733 | -0.98733 | 32271 ft | 445 kts | 308° |
| 2026-04-18 10:56 | 52.70963 | -1.02239 | 32817 ft | 437 kts | 308° |
| 2026-04-18 10:57 | 52.73150 | -1.05687 | 33237 ft | 433 kts | 308° |
| 2026-04-18 10:57 | 52.75326 | -1.09125 | 33576 ft | 431 kts | 308° |
| 2026-04-18 10:57 | 52.77504 | -1.12552 | 33900 ft | 430 kts | 308° |
| 2026-04-18 10:57 | 52.79649 | -1.15917 | 34204 ft | 429 kts | 308° |
| 2026-04-18 10:58 | 52.81818 | -1.19313 | 34477 ft | 428 kts | 308° |
| 2026-04-18 10:58 | 52.83986 | -1.22711 | 34724 ft | 428 kts | 308° |
| 2026-04-18 10:58 | 52.86148 | -1.26110 | 34950 ft | 428 kts | 308° |
| 2026-04-18 10:58 | 52.88309 | -1.29514 | 35152 ft | 429 kts | 308° |
| 2026-04-18 10:59 | 52.90466 | -1.32920 | 35361 ft | 429 kts | 308° |
| 2026-04-18 10:59 | 52.92626 | -1.36336 | 35570 ft | 429 kts | 308° |
| 2026-04-18 10:59 | 52.94792 | -1.39765 | 35764 ft | 430 kts | 308° |
| 2026-04-18 10:59 | 52.96930 | -1.43151 | 35938 ft | 430 kts | 308° |
| 2026-04-18 11:00 | 52.99103 | -1.46597 | 36130 ft | 430 kts | 308° |
| 2026-04-18 11:00 | 53.03429 | -1.53484 | 36206 ft | 432 kts | 308° |
| 2026-04-18 11:01 | 53.07774 | -1.60428 | 36201 ft | 433 kts | 308° |
| 2026-04-18 11:01 | 53.12119 | -1.67374 | 36193 ft | 433 kts | 307° |
| 2026-04-18 11:02 | 53.18639 | -1.77845 | 36189 ft | 434 kts | 307° |
| 2026-04-18 11:02 | 53.23014 | -1.84822 | 36183 ft | 439 kts | 311° |
| 2026-04-18 11:03 | 53.25490 | -1.87792 | 36190 ft | 450 kts | 321° |
| 2026-04-18 11:03 | 53.28262 | -1.90410 | 36202 ft | 452 kts | 322° |
| 2026-04-18 11:03 | 53.33715 | -1.95554 | 36205 ft | 452 kts | 322° |
| 2026-04-18 11:04 | 53.39194 | -2.00763 | 36207 ft | 453 kts | 321° |
| 2026-04-18 11:04 | 53.44655 | -2.05979 | 36216 ft | 453 kts | 322° |
| 2026-04-18 11:05 | 53.50147 | -2.11238 | 36211 ft | 454 kts | 322° |
| 2026-04-18 11:05 | 53.55590 | -2.16599 | 36208 ft | 448 kts | 316° |
| 2026-04-18 11:06 | 53.57965 | -2.19879 | 36202 ft | 437 kts | 306° |
| 2026-04-18 11:06 | 53.59953 | -2.23681 | 36200 ft | 426 kts | 297° |
| 2026-04-18 11:06 | 53.62704 | -2.32208 | 36199 ft | 410 kts | 283° |
| 2026-04-18 11:07 | 53.64762 | -2.41205 | 36194 ft | 411 kts | 283° |
| 2026-04-18 11:07 | 53.66818 | -2.50211 | 36196 ft | 412 kts | 283° |
| 2026-04-18 11:08 | 53.68873 | -2.59257 | 36203 ft | 412 kts | 283° |
| 2026-04-18 11:08 | 53.70912 | -2.68262 | 36211 ft | 413 kts | 283° |
| 2026-04-18 11:09 | 53.72955 | -2.77336 | 36218 ft | 413 kts | 283° |
| 2026-04-18 11:09 | 53.74994 | -2.86422 | 36226 ft | 413 kts | 283° |
| 2026-04-18 11:10 | 53.77021 | -2.95463 | 36222 ft | 414 kts | 283° |
| 2026-04-18 11:10 | 53.79053 | -3.04574 | 36223 ft | 414 kts | 283° |
| 2026-04-18 11:11 | 53.81079 | -3.13719 | 36220 ft | 415 kts | 282° |
| 2026-04-18 11:11 | 53.83096 | -3.22897 | 36219 ft | 416 kts | 282° |
| 2026-04-18 11:12 | 53.85112 | -3.32095 | 36214 ft | 416 kts | 282° |
| 2026-04-18 11:12 | 53.87112 | -3.41244 | 36212 ft | 417 kts | 282° |
| 2026-04-18 11:13 | 53.89119 | -3.50486 | 36206 ft | 418 kts | 282° |
| 2026-04-18 11:13 | 53.91129 | -3.59760 | 36213 ft | 419 kts | 282° |
| 2026-04-18 11:14 | 53.93136 | -3.69057 | 36214 ft | 419 kts | 282° |
| 2026-04-18 11:14 | 53.95117 | -3.78303 | 36217 ft | 420 kts | 282° |
| 2026-04-18 11:15 | 53.96509 | -3.87808 | 36218 ft | 410 kts | 272° |
| 2026-04-18 11:15 | 53.97361 | -3.97384 | 36218 ft | 410 kts | 272° |
| 2026-04-18 11:16 | 53.98207 | -4.06936 | 36216 ft | 411 kts | 272° |
| 2026-04-18 11:16 | 53.99118 | -4.16550 | 36220 ft | 416 kts | 277° |
| 2026-04-18 11:17 | 54.01424 | -4.25751 | 36213 ft | 434 kts | 296° |
| 2026-04-18 11:17 | 54.04929 | -4.34225 | 36220 ft | 438 kts | 297° |
| 2026-04-18 11:18 | 54.08421 | -4.42666 | 36027 ft | 438 kts | 297° |
| 2026-04-18 11:18 | 54.10189 | -4.46969 | 34922 ft | 447 kts | 296° |
| 2026-04-18 11:18 | 54.11979 | -4.51342 | 33866 ft | 452 kts | 296° |
| 2026-04-18 11:19 | 54.13786 | -4.55752 | 32792 ft | 454 kts | 296° |
| 2026-04-18 11:19 | 54.15601 | -4.60179 | 31718 ft | 456 kts | 297° |
| 2026-04-18 11:19 | 54.17416 | -4.64604 | 30856 ft | 453 kts | 297° |
| 2026-04-18 11:19 | 54.19222 | -4.69001 | 29939 ft | 451 kts | 297° |
| 2026-04-18 11:20 | 54.21020 | -4.73381 | 29034 ft | 448 kts | 298° |
| 2026-04-18 11:20 | 54.22776 | -4.77673 | 28254 ft | 443 kts | 298° |
| 2026-04-18 11:20 | 54.24532 | -4.81978 | 27487 ft | 439 kts | 298° |
| 2026-04-18 11:20 | 54.26267 | -4.86243 | 26759 ft | 434 kts | 298° |
| 2026-04-18 11:21 | 54.27986 | -4.90480 | 26059 ft | 430 kts | 298° |
| 2026-04-18 11:21 | 54.29684 | -4.94680 | 25387 ft | 427 kts | 298° |
| 2026-04-18 11:21 | 54.31364 | -4.98846 | 24737 ft | 423 kts | 298° |
| 2026-04-18 11:21 | 54.33035 | -5.02987 | 24105 ft | 419 kts | 299° |
| 2026-04-18 11:22 | 54.34664 | -5.07031 | 23452 ft | 416 kts | 299° |
| 2026-04-18 11:22 | 54.36302 | -5.11105 | 22768 ft | 412 kts | 299° |
| 2026-04-18 11:22 | 54.37922 | -5.15141 | 22134 ft | 409 kts | 299° |
| 2026-04-18 11:22 | 54.39526 | -5.19140 | 21534 ft | 405 kts | 299° |
| 2026-04-18 11:23 | 54.41114 | -5.23101 | 20949 ft | 401 kts | 299° |
| 2026-04-18 11:23 | 54.42685 | -5.27036 | 20383 ft | 398 kts | 299° |
| 2026-04-18 11:23 | 54.44245 | -5.30952 | 19836 ft | 394 kts | 299° |
| 2026-04-18 11:23 | 54.45921 | -5.34681 | 19320 ft | 397 kts | 308° |
| 2026-04-18 11:24 | 54.47806 | -5.38045 | 18962 ft | 388 kts | 312° |
| 2026-04-18 11:24 | 54.49651 | -5.41335 | 18657 ft | 378 kts | 312° |
| 2026-04-18 11:24 | 54.51302 | -5.44800 | 18145 ft | 371 kts | 301° |
| 2026-04-18 11:24 | 54.52473 | -5.48718 | 17544 ft | 366 kts | 290° |
| 2026-04-18 11:25 | 54.53299 | -5.52921 | 16490 ft | 375 kts | 287° |
| 2026-04-18 11:25 | 54.54106 | -5.57260 | 15437 ft | 384 kts | 286° |
| 2026-04-18 11:25 | 54.54910 | -5.61630 | 14411 ft | 390 kts | 286° |
| 2026-04-18 11:25 | 54.55736 | -5.66132 | 13295 ft | 396 kts | 286° |
| 2026-04-18 11:26 | 54.56566 | -5.70635 | 12593 ft | 391 kts | 287° |
| 2026-04-18 11:26 | 54.57385 | -5.75074 | 11894 ft | 385 kts | 287° |
| 2026-04-18 11:26 | 54.58190 | -5.79442 | 11183 ft | 380 kts | 287° |
| 2026-04-18 11:26 | 54.58985 | -5.83763 | 10546 ft | 374 kts | 287° |
| 2026-04-18 11:27 | 54.59751 | -5.87935 | 10358 ft | 355 kts | 287° |
| 2026-04-18 11:27 | 54.60480 | -5.91909 | 10236 ft | 337 kts | 287° |
| 2026-04-18 11:27 | 54.61162 | -5.95626 | 9869 ft | 326 kts | 287° |
| 2026-04-18 11:27 | 54.61847 | -5.99381 | 8912 ft | 328 kts | 287° |
| 2026-04-18 11:28 | 54.62517 | -6.03062 | 8173 ft | 313 kts | 288° |
| 2026-04-18 11:28 | 54.63154 | -6.06575 | 7565 ft | 298 kts | 288° |
| 2026-04-18 11:28 | 54.63756 | -6.09913 | 6978 ft | 285 kts | 288° |
| 2026-04-18 11:28 | 54.64326 | -6.13075 | 6758 ft | 262 kts | 288° |
| 2026-04-18 11:29 | 54.64840 | -6.15927 | 6678 ft | 237 kts | 288° |
| 2026-04-18 11:29 | 54.65302 | -6.18492 | 6529 ft | 217 kts | 288° |
| 2026-04-18 11:29 | 54.65773 | -6.20907 | 6403 ft | 203 kts | 296° |
| 2026-04-18 11:29 | 54.66514 | -6.22847 | 6333 ft | 183 kts | 311° |
| 2026-04-18 11:30 | 54.67449 | -6.24213 | 6082 ft | 173 kts | 325° |
| 2026-04-18 11:30 | 54.68488 | -6.25177 | 5835 ft | 162 kts | 328° |
| 2026-04-18 11:30 | 54.69433 | -6.26047 | 5602 ft | 150 kts | 328° |
| 2026-04-18 11:30 | 54.70327 | -6.26880 | 5403 ft | 141 kts | 327° |
| 2026-04-18 11:31 | 54.71183 | -6.27681 | 5209 ft | 139 kts | 327° |
| 2026-04-18 11:31 | 54.72023 | -6.28468 | 4922 ft | 137 kts | 327° |
| 2026-04-18 11:31 | 54.72861 | -6.29254 | 4616 ft | 137 kts | 327° |
| 2026-04-18 11:31 | 54.73696 | -6.30034 | 4306 ft | 136 kts | 327° |
| 2026-04-18 11:32 | 54.74527 | -6.30809 | 4014 ft | 135 kts | 327° |
| 2026-04-18 11:32 | 54.75354 | -6.31580 | 3723 ft | 134 kts | 328° |
| 2026-04-18 11:32 | 54.76165 | -6.32337 | 3429 ft | 134 kts | 328° |
| 2026-04-18 11:32 | 54.76988 | -6.33104 | 3150 ft | 135 kts | 328° |
| 2026-04-18 11:33 | 54.77807 | -6.33869 | 2922 ft | 133 kts | 327° |
| 2026-04-18 11:33 | 54.78622 | -6.34632 | 2786 ft | 133 kts | 327° |
| 2026-04-18 11:33 | 54.79443 | -6.35394 | 2651 ft | 134 kts | 328° |
| 2026-04-18 11:33 | 54.80043 | -6.35701 | 2558 ft | 138 kts | 347° |
| 2026-04-18 11:34 | 54.81001 | -6.35500 | 2430 ft | 142 kts | 13° |
| 2026-04-18 11:34 | 54.81813 | -6.34512 | 2505 ft | 148 kts | 42° |
| 2026-04-18 11:34 | 54.82289 | -6.32883 | 2524 ft | 157 kts | 75° |
| 2026-04-18 11:34 | 54.82209 | -6.30983 | 2529 ft | 162 kts | 110° |
| 2026-04-18 11:35 | 54.81570 | -6.29422 | 2542 ft | 161 kts | 146° |
| 2026-04-18 11:35 | 54.80582 | -6.28663 | 2539 ft | 153 kts | 179° |
| 2026-04-18 11:35 | 54.79562 | -6.28809 | 2547 ft | 145 kts | 200° |
| 2026-04-18 11:35 | 54.78570 | -6.29179 | 2536 ft | 146 kts | 200° |
| 2026-04-18 11:36 | 54.77549 | -6.29342 | 2541 ft | 151 kts | 180° |
| 2026-04-18 11:36 | 54.76513 | -6.28838 | 2486 ft | 156 kts | 168° |
| 2026-04-18 11:36 | 54.75478 | -6.28243 | 2244 ft | 155 kts | 168° |
| 2026-04-18 11:36 | 54.74455 | -6.27665 | 2028 ft | 155 kts | 169° |
| 2026-04-18 11:37 | 54.73439 | -6.27097 | 1823 ft | 156 kts | 168° |
| 2026-04-18 11:37 | 54.72407 | -6.26520 | 1611 ft | 156 kts | 168° |
| 2026-04-18 11:37 | 54.71377 | -6.25946 | 1403 ft | 155 kts | 168° |
| 2026-04-18 11:37 | 54.70356 | -6.25374 | 1184 ft | 153 kts | 168° |
| 2026-04-18 11:38 | 54.69350 | -6.24808 | 984 ft | 151 kts | 167° |
| 2026-04-18 11:38 | 54.68351 | -6.24256 | 787 ft | 150 kts | 168° |
| 2026-04-18 11:38 | 54.67355 | -6.23735 | 599 ft | 150 kts | 169° |
| 2026-04-18 11:38 | 54.66365 | -6.23169 | 376 ft | 150 kts | 167° |
| 2026-04-18 11:39 | 54.65388 | -6.22622 | 240 ft | 146 kts | 168° |
| 2026-04-18 11:39 | 54.64644 | -6.22239 | 251 ft | 46 kts | 159° |
| 2026-04-18 11:39 | 54.64514 | -6.22130 | 254 ft | 13 kts | 127° |
| 2026-04-18 11:39 | 54.64549 | -6.22051 | 256 ft | 13 kts | 359° |
| 2026-04-18 11:40 | 54.64630 | -6.22055 | 254 ft | 9 kts | 349° |
| 2026-04-18 11:40 | 54.64635 | -6.22057 | 254 ft | 0 kts | 348° |
| 2026-04-18 11:40 | 54.64636 | -6.22057 | 254 ft | 3 kts | 348° |
| 2026-04-18 11:41 | 54.64678 | -6.22076 | 252 ft | 5 kts | 344° |
| 2026-04-18 11:41 | 54.64730 | -6.22094 | 251 ft | 8 kts | 14° |
| 2026-04-18 11:41 | 54.64716 | -6.21991 | 251 ft | 11 kts | 140° |
| 2026-04-18 11:41 | 54.64618 | -6.21981 | 254 ft | 16 kts | 219° |
| 2026-04-18 11:42 | 54.64645 | -6.22056 | 253 ft | 11 kts | 337° |
| 2026-04-18 11:42 | 54.64749 | -6.22118 | 250 ft | 20 kts | 347° |
| 2026-04-18 11:42 | 54.64908 | -6.22190 | 245 ft | 27 kts | 337° |
| 2026-04-18 11:42 | 54.65012 | -6.22268 | 241 ft | 17 kts | 339° |
| 2026-04-18 11:43 | 54.65113 | -6.22301 | 238 ft | 8 kts | 40° |
| 2026-04-18 11:43 | 54.65182 | -6.22209 | 239 ft | 17 kts | 38° |
| 2026-04-18 11:43 | 54.65295 | -6.22057 | 235 ft | 24 kts | 37° |
| 2026-04-18 11:43 | 54.65402 | -6.21920 | 236 ft | 20 kts | 33° |
| 2026-04-18 11:44 | 54.65516 | -6.21922 | 237 ft | 18 kts | 343° |
| 2026-04-18 11:44 | 54.65661 | -6.22002 | 234 ft | 25 kts | 341° |
| 2026-04-18 11:44 | 54.65782 | -6.22072 | 237 ft | 11 kts | 1° |
| 2026-04-18 11:44 | 54.65825 | -6.21975 | 239 ft | 12 kts | 60° |
| 2026-04-18 11:45 | 54.65870 | -6.21818 | 242 ft | 17 kts | 65° |
| 2026-04-18 11:45 | 54.65919 | -6.21630 | 245 ft | 15 kts | 65° |
| 2026-04-18 11:45 | 54.65972 | -6.21493 | 248 ft | 13 kts | 21° |
| 2026-04-18 11:45 | 54.66053 | -6.21531 | 246 ft | 10 kts | 334° |
| 2026-04-18 11:46 | 54.66074 | -6.21549 | 246 ft | 0 kts | 333° |
| 2026-04-18 11:46 | 54.66079 | -6.21553 | 246 ft | 1 kts | 334° |
| 2026-04-18 11:46 | 54.66071 | -6.21547 | 246 ft | 0 kts | 335° |